Frostproof, FL (33843)

10:51 AM EDT on July 29, 2016 (GMT -0400)
APRSWXNET | | Change Station

Elev 134 ft 27.76 °N, 81.57 °W | Updated 34 minutes ago

Scattered Clouds
Scattered Clouds
87 °F
Feels Like 102 °F
N
2
Wind Variable Wind from NNW
Gusts 5.0 mph

Today
High -- | Low -- °F
--% Chance of Precip.
Yesterday
High -- | Low -- °F
Precip. -- in
Pressure 30.07 in
Visibility 15.0 miles
Clouds Scattered Clouds 2600 ft
Heat Index 102 °F
Dew Point 79 °F
Humidity 78%
Rainfall in
Snow Depth Not available.
6:47 AM 8:17 PM
Waning Crescent, 21% visible
METAR KBOW 291449Z 32005KT 15SM SCT026 31/24 A3007
Pressure 30.07 in
Visibility 15.0 miles
Clouds Scattered Clouds 2600 ft
Heat Index 102 °F
Dew Point 79 °F
Humidity 78%
Rainfall in
Snow Depth Not available.
6:47 AM 8:17 PM
Waning Crescent, 21% visible
METAR KBOW 291449Z 32005KT 15SM SCT026 31/24 A3007

10-Day Weather Forecast

Almanac

Astronomy

Jul. 29, 2016 Rise Set
Actual Time
Civil Twilight
Nautical Twilight
Astronomical Twilight
Moon
Length of Visible Light
Length of Day
Tomorrow will be .
, % of the Moon is Illuminated

Today's Extremes

State Highs State Lows

Community

WunderPhotos

Upload Photos

1,928,343 photos uploaded!

WunderBlog® & News

Nearby

Air Quality

  Air Quality AQ Index Pollutant
Not available.

Snow Depth

Station Depth Elevation

Earthquake Activity

City Distance Mag. Time & Date
Minimum magnitude displayed is 2.5.

Coastal Water Temperatures

Place Temperature

Stations

Nearby Weather Stations

Station Location Temp. Windchill Dew Point Humidity Wind Precip. Elev Updated Type
                   

Watches & Warnings

There are currently no watches in effect.